sensor_id;sensor_type;location;lat;lon;timestamp;pressure;altitude;pressure_sealevel;temperature;humidity
57847;BME280;43675;50.030;21.952;2023-03-16T00:00:45;98742.62;;;1.09;63.16
57847;BME280;43675;50.030;21.952;2023-03-16T00:03:19;98747.06;;;1.03;63.28
57847;BME280;43675;50.030;21.952;2023-03-16T00:05:50;98744.13;;;0.99;63.38
57847;BME280;43675;50.030;21.952;2023-03-16T00:08:17;98742.39;;;0.97;63.55
57847;BME280;43675;50.030;21.952;2023-03-16T00:10:45;98743.48;;;0.93;63.46
57847;BME280;43675;50.030;21.952;2023-03-16T00:13:17;98742.89;;;0.87;63.62
57847;BME280;43675;50.030;21.952;2023-03-16T00:15:54;98748.47;;;0.82;63.82
57847;BME280;43675;50.030;21.952;2023-03-16T00:18:23;98751.81;;;0.79;63.85
57847;BME280;43675;50.030;21.952;2023-03-16T00:20:51;98752.04;;;0.78;63.90
57847;BME280;43675;50.030;21.952;2023-03-16T00:23:18;98755.88;;;0.77;64.02
57847;BME280;43675;50.030;21.952;2023-03-16T00:25:45;98756.17;;;0.74;64.06
57847;BME280;43675;50.030;21.952;2023-03-16T00:28:11;98760.04;;;0.70;64.14
57847;BME280;43675;50.030;21.952;2023-03-16T00:30:38;98756.96;;;0.68;64.21
57847;BME280;43675;50.030;21.952;2023-03-16T00:33:05;98761.10;;;0.67;64.24
57847;BME280;43675;50.030;21.952;2023-03-16T00:35:31;98759.24;;;0.64;64.37
57847;BME280;43675;50.030;21.952;2023-03-16T00:37:58;98760.05;;;0.61;64.63
57847;BME280;43675;50.030;21.952;2023-03-16T00:40:24;98764.63;;;0.60;64.66
57847;BME280;43675;50.030;21.952;2023-03-16T00:42:51;98765.34;;;0.58;64.86
57847;BME280;43675;50.030;21.952;2023-03-16T00:45:17;98767.02;;;0.57;64.81
57847;BME280;43675;50.030;21.952;2023-03-16T00:47:44;98771.45;;;0.55;65.00
57847;BME280;43675;50.030;21.952;2023-03-16T00:50:10;98766.44;;;0.54;65.06
57847;BME280;43675;50.030;21.952;2023-03-16T00:52:37;98766.73;;;0.53;65.11
57847;BME280;43675;50.030;21.952;2023-03-16T00:55:04;98763.89;;;0.51;65.16
57847;BME280;43675;50.030;21.952;2023-03-16T00:57:31;98764.66;;;0.48;65.51
57847;BME280;43675;50.030;21.952;2023-03-16T00:59:57;98766.73;;;0.47;65.49
57847;BME280;43675;50.030;21.952;2023-03-16T01:02:24;98765.82;;;0.46;65.54
57847;BME280;43675;50.030;21.952;2023-03-16T01:04:51;98765.52;;;0.43;65.68
57847;BME280;43675;50.030;21.952;2023-03-16T01:07:18;98762.69;;;0.42;65.58
57847;BME280;43675;50.030;21.952;2023-03-16T01:09:45;98762.27;;;0.42;65.68
57847;BME280;43675;50.030;21.952;2023-03-16T01:12:14;98762.11;;;0.40;65.76
57847;BME280;43675;50.030;21.952;2023-03-16T01:14:41;98760.29;;;0.37;65.86
57847;BME280;43675;50.030;21.952;2023-03-16T01:17:08;98761.56;;;0.35;65.88
57847;BME280;43675;50.030;21.952;2023-03-16T01:19:36;98763.63;;;0.32;66.14
57847;BME280;43675;50.030;21.952;2023-03-16T01:22:04;98764.52;;;0.30;66.14
57847;BME280;43675;50.030;21.952;2023-03-16T01:24:32;98764.12;;;0.29;66.12
57847;BME280;43675;50.030;21.952;2023-03-16T01:26:59;98766.29;;;0.28;66.17
57847;BME280;43675;50.030;21.952;2023-03-16T01:29:26;98772.45;;;0.26;66.32
57847;BME280;43675;50.030;21.952;2023-03-16T01:31:52;98773.47;;;0.25;66.44
57847;BME280;43675;50.030;21.952;2023-03-16T01:34:19;98773.79;;;0.24;66.57
57847;BME280;43675;50.030;21.952;2023-03-16T01:36:47;98774.65;;;0.24;66.41
57847;BME280;43675;50.030;21.952;2023-03-16T01:39:14;98780.35;;;0.23;66.69
57847;BME280;43675;50.030;21.952;2023-03-16T01:41:44;98783.32;;;0.23;66.55
57847;BME280;43675;50.030;21.952;2023-03-16T01:44:18;98787.20;;;0.25;66.73
57847;BME280;43675;50.030;21.952;2023-03-16T01:46:44;98788.09;;;0.26;66.60
57847;BME280;43675;50.030;21.952;2023-03-16T01:49:34;98792.06;;;0.29;66.65
57847;BME280;43675;50.030;21.952;2023-03-16T01:54:35;98795.81;;;0.27;66.63
57847;BME280;43675;50.030;21.952;2023-03-16T01:57:14;98798.41;;;0.24;66.68
57847;BME280;43675;50.030;21.952;2023-03-16T02:02:14;98803.39;;;0.21;66.89
57847;BME280;43675;50.030;21.952;2023-03-16T02:04:48;98807.76;;;0.18;67.19
57847;BME280;43675;50.030;21.952;2023-03-16T02:07:21;98809.06;;;0.15;67.14
57847;BME280;43675;50.030;21.952;2023-03-16T02:09:51;98809.45;;;0.13;67.09
57847;BME280;43675;50.030;21.952;2023-03-16T02:12:19;98812.91;;;0.12;67.45
57847;BME280;43675;50.030;21.952;2023-03-16T02:14:48;98814.14;;;0.10;67.46
57847;BME280;43675;50.030;21.952;2023-03-16T02:17:18;98814.67;;;0.08;67.63
57847;BME280;43675;50.030;21.952;2023-03-16T02:22:49;98823.58;;;0.07;67.47
57847;BME280;43675;50.030;21.952;2023-03-16T02:25:17;98824.54;;;0.07;67.94
57847;BME280;43675;50.030;21.952;2023-03-16T02:30:20;98824.17;;;-0.01;67.90
57847;BME280;43675;50.030;21.952;2023-03-16T02:32:48;98821.77;;;-0.04;67.96
57847;BME280;43675;50.030;21.952;2023-03-16T02:35:16;98824.42;;;-0.07;68.08
57847;BME280;43675;50.030;21.952;2023-03-16T02:37:43;98825.31;;;-0.11;68.25
57847;BME280;43675;50.030;21.952;2023-03-16T02:43:01;98829.23;;;-0.21;68.66
57847;BME280;43675;50.030;21.952;2023-03-16T02:45:43;98834.86;;;-0.27;68.57
57847;BME280;43675;50.030;21.952;2023-03-16T02:48:17;98835.38;;;-0.32;68.48
57847;BME280;43675;50.030;21.952;2023-03-16T02:50:47;98834.23;;;-0.37;68.70
57847;BME280;43675;50.030;21.952;2023-03-16T02:53:15;98835.23;;;-0.42;68.72
57847;BME280;43675;50.030;21.952;2023-03-16T02:55:42;98838.78;;;-0.46;68.90
57847;BME280;43675;50.030;21.952;2023-03-16T02:58:09;98844.26;;;-0.52;69.03
57847;BME280;43675;50.030;21.952;2023-03-16T03:00:36;98845.34;;;-0.58;69.14
57847;BME280;43675;50.030;21.952;2023-03-16T03:03:04;98848.56;;;-0.63;69.43
57847;BME280;43675;50.030;21.952;2023-03-16T03:05:32;98852.17;;;-0.65;69.60
57847;BME280;43675;50.030;21.952;2023-03-16T03:07:58;98856.26;;;-0.68;69.90
57847;BME280;43675;50.030;21.952;2023-03-16T03:10:25;98854.54;;;-0.70;69.90
57847;BME280;43675;50.030;21.952;2023-03-16T03:12:52;98857.03;;;-0.70;70.06
57847;BME280;43675;50.030;21.952;2023-03-16T03:15:18;98858.39;;;-0.70;70.37
57847;BME280;43675;50.030;21.952;2023-03-16T03:17:45;98856.58;;;-0.69;70.52
57847;BME280;43675;50.030;21.952;2023-03-16T03:20:12;98856.86;;;-0.69;70.32
57847;BME280;43675;50.030;21.952;2023-03-16T03:22:39;98859.26;;;-0.68;70.63
57847;BME280;43675;50.030;21.952;2023-03-16T03:25:06;98859.13;;;-0.66;70.54
57847;BME280;43675;50.030;21.952;2023-03-16T03:27:33;98862.38;;;-0.64;70.68
57847;BME280;43675;50.030;21.952;2023-03-16T03:30:00;98867.54;;;-0.63;70.68
57847;BME280;43675;50.030;21.952;2023-03-16T03:32:27;98869.42;;;-0.62;70.96
57847;BME280;43675;50.030;21.952;2023-03-16T03:34:53;98871.52;;;-0.62;71.02
57847;BME280;43675;50.030;21.952;2023-03-16T03:37:20;98880.16;;;-0.60;70.90
57847;BME280;43675;50.030;21.952;2023-03-16T03:39:46;98879.28;;;-0.60;71.07
57847;BME280;43675;50.030;21.952;2023-03-16T03:42:13;98878.48;;;-0.59;70.94
57847;BME280;43675;50.030;21.952;2023-03-16T03:44:40;98881.52;;;-0.58;70.93
57847;BME280;43675;50.030;21.952;2023-03-16T03:47:06;98885.88;;;-0.57;71.24
57847;BME280;43675;50.030;21.952;2023-03-16T03:49:33;98889.31;;;-0.57;71.26
57847;BME280;43675;50.030;21.952;2023-03-16T03:51:59;98886.13;;;-0.56;71.33
57847;BME280;43675;50.030;21.952;2023-03-16T03:54:26;98887.30;;;-0.56;71.31
57847;BME280;43675;50.030;21.952;2023-03-16T03:56:53;98891.52;;;-0.56;71.24
57847;BME280;43675;50.030;21.952;2023-03-16T03:59:19;98894.35;;;-0.56;71.45
57847;BME280;43675;50.030;21.952;2023-03-16T04:01:46;98892.73;;;-0.56;71.57
57847;BME280;43675;50.030;21.952;2023-03-16T04:04:12;98895.73;;;-0.56;71.43
57847;BME280;43675;50.030;21.952;2023-03-16T04:06:39;98903.87;;;-0.56;71.65
57847;BME280;43675;50.030;21.952;2023-03-16T04:09:07;98906.17;;;-0.57;71.74
57847;BME280;43675;50.030;21.952;2023-03-16T04:11:34;98909.50;;;-0.56;71.48
57847;BME280;43675;50.030;21.952;2023-03-16T04:14:00;98913.73;;;-0.57;71.72
57847;BME280;43675;50.030;21.952;2023-03-16T04:16:27;98916.88;;;-0.57;71.75
57847;BME280;43675;50.030;21.952;2023-03-16T04:18:53;98916.46;;;-0.56;71.81
57847;BME280;43675;50.030;21.952;2023-03-16T04:21:21;98914.16;;;-0.56;71.69
57847;BME280;43675;50.030;21.952;2023-03-16T04:23:49;98914.60;;;-0.55;71.90
57847;BME280;43675;50.030;21.952;2023-03-16T04:26:15;98913.84;;;-0.54;71.77
57847;BME280;43675;50.030;21.952;2023-03-16T04:28:42;98916.30;;;-0.54;72.07
57847;BME280;43675;50.030;21.952;2023-03-16T04:31:09;98922.73;;;-0.55;72.04
57847;BME280;43675;50.030;21.952;2023-03-16T04:33:37;98922.39;;;-0.56;72.00
57847;BME280;43675;50.030;21.952;2023-03-16T04:36:05;98926.29;;;-0.56;72.20
57847;BME280;43675;50.030;21.952;2023-03-16T04:38:32;98927.41;;;-0.55;72.23
57847;BME280;43675;50.030;21.952;2023-03-16T04:41:00;98927.31;;;-0.53;72.21
57847;BME280;43675;50.030;21.952;2023-03-16T04:43:28;98928.42;;;-0.54;72.03
57847;BME280;43675;50.030;21.952;2023-03-16T04:45:55;98928.75;;;-0.56;72.06
57847;BME280;43675;50.030;21.952;2023-03-16T04:48:22;98936.43;;;-0.57;72.24
57847;BME280;43675;50.030;21.952;2023-03-16T04:50:48;98939.19;;;-0.60;72.31
57847;BME280;43675;50.030;21.952;2023-03-16T04:53:15;98947.56;;;-0.61;72.16
57847;BME280;43675;50.030;21.952;2023-03-16T04:55:44;98947.17;;;-0.63;72.27
57847;BME280;43675;50.030;21.952;2023-03-16T04:58:11;98948.84;;;-0.64;72.31
57847;BME280;43675;50.030;21.952;2023-03-16T05:00:38;98949.51;;;-0.63;72.34
57847;BME280;43675;50.030;21.952;2023-03-16T05:03:06;98951.61;;;-0.63;72.42
57847;BME280;43675;50.030;21.952;2023-03-16T05:05:33;98955.34;;;-0.62;72.44
57847;BME280;43675;50.030;21.952;2023-03-16T05:08:00;98958.68;;;-0.62;72.50
57847;BME280;43675;50.030;21.952;2023-03-16T05:10:27;98964.18;;;-0.62;72.38
57847;BME280;43675;50.030;21.952;2023-03-16T05:12:54;98964.02;;;-0.63;72.49
57847;BME280;43675;50.030;21.952;2023-03-16T05:15:20;98966.85;;;-0.63;72.44
57847;BME280;43675;50.030;21.952;2023-03-16T05:17:47;98969.25;;;-0.62;72.45
57847;BME280;43675;50.030;21.952;2023-03-16T05:20:14;98966.98;;;-0.61;72.44
57847;BME280;43675;50.030;21.952;2023-03-16T05:22:43;98966.63;;;-0.55;72.54
57847;BME280;43675;50.030;21.952;2023-03-16T05:25:11;98968.70;;;-0.35;72.36
57847;BME280;43675;50.030;21.952;2023-03-16T05:27:38;98972.20;;;-0.14;71.97
57847;BME280;43675;50.030;21.952;2023-03-16T05:30:06;98977.73;;;0.01;71.52
57847;BME280;43675;50.030;21.952;2023-03-16T05:32:33;98977.11;;;0.11;71.35
57847;BME280;43675;50.030;21.952;2023-03-16T05:34:59;98984.48;;;0.19;71.12
57847;BME280;43675;50.030;21.952;2023-03-16T05:37:26;98980.11;;;0.25;70.79
57847;BME280;43675;50.030;21.952;2023-03-16T05:39:52;98985.66;;;0.29;70.89
57847;BME280;43675;50.030;21.952;2023-03-16T05:42:19;98987.60;;;0.31;70.63
57847;BME280;43675;50.030;21.952;2023-03-16T05:44:45;98989.73;;;0.32;70.46
57847;BME280;43675;50.030;21.952;2023-03-16T05:47:12;98992.27;;;0.33;70.62
57847;BME280;43675;50.030;21.952;2023-03-16T05:49:39;98995.63;;;0.33;70.59
57847;BME280;43675;50.030;21.952;2023-03-16T05:52:05;99002.09;;;0.21;70.47
57847;BME280;43675;50.030;21.952;2023-03-16T05:54:32;99007.61;;;0.01;71.02
57847;BME280;43675;50.030;21.952;2023-03-16T05:56:59;99011.65;;;-0.12;71.12
57847;BME280;43675;50.030;21.952;2023-03-16T05:59:25;99017.44;;;-0.22;71.18
57847;BME280;43675;50.030;21.952;2023-03-16T06:01:52;99018.80;;;-0.31;71.50
57847;BME280;43675;50.030;21.952;2023-03-16T06:04:18;99018.88;;;-0.37;71.70
57847;BME280;43675;50.030;21.952;2023-03-16T06:06:45;99021.42;;;-0.42;71.65
57847;BME280;43675;50.030;21.952;2023-03-16T06:09:11;99025.58;;;-0.46;71.79
57847;BME280;43675;50.030;21.952;2023-03-16T06:11:38;99032.58;;;-0.47;71.90
57847;BME280;43675;50.030;21.952;2023-03-16T06:14:05;99031.94;;;-0.48;71.80
57847;BME280;43675;50.030;21.952;2023-03-16T06:16:31;99037.58;;;-0.48;71.96
57847;BME280;43675;50.030;21.952;2023-03-16T06:18:58;99040.19;;;-0.48;72.22
57847;BME280;43675;50.030;21.952;2023-03-16T06:21:24;99040.85;;;-0.47;71.86
57847;BME280;43675;50.030;21.952;2023-03-16T06:23:51;99043.25;;;-0.47;72.02
57847;BME280;43675;50.030;21.952;2023-03-16T06:26:17;99042.34;;;-0.44;72.22
57847;BME280;43675;50.030;21.952;2023-03-16T06:28:44;99046.89;;;-0.40;72.22
57847;BME280;43675;50.030;21.952;2023-03-16T06:31:10;99049.86;;;-0.34;72.52
57847;BME280;43675;50.030;21.952;2023-03-16T06:33:37;99054.98;;;-0.26;72.46
57847;BME280;43675;50.030;21.952;2023-03-16T06:36:03;99056.98;;;-0.18;72.28
57847;BME280;43675;50.030;21.952;2023-03-16T06:38:30;99054.80;;;-0.11;72.09
57847;BME280;43675;50.030;21.952;2023-03-16T06:40:57;99056.23;;;-0.04;72.09
57847;BME280;43675;50.030;21.952;2023-03-16T06:43:23;99056.64;;;0.04;71.98
57847;BME280;43675;50.030;21.952;2023-03-16T06:45:50;99056.91;;;0.12;71.96
57847;BME280;43675;50.030;21.952;2023-03-16T06:48:16;99055.20;;;0.21;71.74
57847;BME280;43675;50.030;21.952;2023-03-16T06:50:46;99055.36;;;0.29;71.63
57847;BME280;43675;50.030;21.952;2023-03-16T06:53:12;99055.12;;;0.39;71.48
57847;BME280;43675;50.030;21.952;2023-03-16T06:55:39;99053.60;;;0.50;71.34
57847;BME280;43675;50.030;21.952;2023-03-16T06:58:06;99060.33;;;0.63;71.07
57847;BME280;43675;50.030;21.952;2023-03-16T07:00:32;99064.19;;;0.89;70.77
57847;BME280;43675;50.030;21.952;2023-03-16T07:03:00;99066.25;;;1.15;70.28
57847;BME280;43675;50.030;21.952;2023-03-16T07:05:26;99068.80;;;1.36;69.82
57847;BME280;43675;50.030;21.952;2023-03-16T07:07:56;99068.77;;;1.53;69.33
57847;BME280;43675;50.030;21.952;2023-03-16T07:10:23;99070.17;;;1.64;69.05
57847;BME280;43675;50.030;21.952;2023-03-16T07:12:50;99073.89;;;1.58;68.97
57847;BME280;43675;50.030;21.952;2023-03-16T07:15:22;99073.48;;;1.55;68.99
57847;BME280;43675;50.030;21.952;2023-03-16T07:17:50;99073.61;;;1.54;68.92
57847;BME280;43675;50.030;21.952;2023-03-16T07:20:18;99075.80;;;1.55;68.95
57847;BME280;43675;50.030;21.952;2023-03-16T07:22:46;99078.66;;;1.56;68.79
57847;BME280;43675;50.030;21.952;2023-03-16T07:25:14;99076.67;;;1.59;68.79
57847;BME280;43675;50.030;21.952;2023-03-16T07:27:42;99079.66;;;1.62;68.47
57847;BME280;43675;50.030;21.952;2023-03-16T07:30:12;99078.01;;;1.69;68.40
57847;BME280;43675;50.030;21.952;2023-03-16T07:32:40;99083.81;;;1.76;68.01
57847;BME280;43675;50.030;21.952;2023-03-16T07:35:09;99085.33;;;1.82;67.66
57847;BME280;43675;50.030;21.952;2023-03-16T07:37:37;99086.51;;;1.86;67.22
57847;BME280;43675;50.030;21.952;2023-03-16T07:40:05;99087.45;;;1.89;67.09
57847;BME280;43675;50.030;21.952;2023-03-16T07:42:33;99088.96;;;1.94;66.89
57847;BME280;43675;50.030;21.952;2023-03-16T07:45:03;99086.80;;;1.99;66.68
57847;BME280;43675;50.030;21.952;2023-03-16T07:47:31;99089.89;;;2.06;66.52
57847;BME280;43675;50.030;21.952;2023-03-16T07:49:58;99090.30;;;2.10;66.46
57847;BME280;43675;50.030;21.952;2023-03-16T07:52:27;99094.20;;;2.14;66.48
57847;BME280;43675;50.030;21.952;2023-03-16T07:54:55;99089.37;;;2.14;66.27
57847;BME280;43675;50.030;21.952;2023-03-16T07:57:22;99091.46;;;2.13;66.04
57847;BME280;43675;50.030;21.952;2023-03-16T07:59:50;99094.23;;;2.11;66.09
57847;BME280;43675;50.030;21.952;2023-03-16T08:02:18;99096.80;;;2.09;66.10
57847;BME280;43675;50.030;21.952;2023-03-16T08:04:47;99103.05;;;2.08;66.12
57847;BME280;43675;50.030;21.952;2023-03-16T08:07:16;99108.81;;;2.07;66.04
57847;BME280;43675;50.030;21.952;2023-03-16T08:09:58;99113.03;;;2.05;65.88
57847;BME280;43675;50.030;21.952;2023-03-16T08:12:53;99113.88;;;2.06;65.79
57847;BME280;43675;50.030;21.952;2023-03-16T08:15:20;99115.05;;;2.05;65.59
57847;BME280;43675;50.030;21.952;2023-03-16T08:17:48;99122.23;;;2.05;65.67
57847;BME280;43675;50.030;21.952;2023-03-16T08:20:15;99120.99;;;2.10;65.71
57847;BME280;43675;50.030;21.952;2023-03-16T08:22:44;99122.47;;;2.19;65.61
57847;BME280;43675;50.030;21.952;2023-03-16T08:25:13;99125.30;;;2.34;65.88
57847;BME280;43675;50.030;21.952;2023-03-16T08:27:41;99120.39;;;2.54;65.51
57847;BME280;43675;50.030;21.952;2023-03-16T08:30:13;99124.05;;;2.80;65.31
57847;BME280;43675;50.030;21.952;2023-03-16T08:32:41;99116.36;;;3.12;64.84
57847;BME280;43675;50.030;21.952;2023-03-16T08:35:12;99116.77;;;3.44;64.35
57847;BME280;43675;50.030;21.952;2023-03-16T08:37:42;99128.34;;;3.69;62.94
57847;BME280;43675;50.030;21.952;2023-03-16T08:40:10;99121.55;;;3.89;62.67
57847;BME280;43675;50.030;21.952;2023-03-16T08:42:38;99120.65;;;4.03;61.40
57847;BME280;43675;50.030;21.952;2023-03-16T08:45:06;99125.98;;;4.12;61.39
57847;BME280;43675;50.030;21.952;2023-03-16T08:47:35;99122.93;;;4.16;60.28
57847;BME280;43675;50.030;21.952;2023-03-16T08:50:04;99119.95;;;4.21;59.95
57847;BME280;43675;50.030;21.952;2023-03-16T08:52:32;99118.84;;;4.36;60.18
57847;BME280;43675;50.030;21.952;2023-03-16T08:55:02;99125.95;;;4.57;59.51
57847;BME280;43675;50.030;21.952;2023-03-16T08:57:32;99128.54;;;4.77;59.05
57847;BME280;43675;50.030;21.952;2023-03-16T09:00:09;99128.66;;;4.87;57.83
57847;BME280;43675;50.030;21.952;2023-03-16T09:02:37;99126.14;;;4.91;57.69
57847;BME280;43675;50.030;21.952;2023-03-16T09:05:07;99126.98;;;5.07;57.27
57847;BME280;43675;50.030;21.952;2023-03-16T09:07:37;99133.64;;;5.36;56.96
57847;BME280;43675;50.030;21.952;2023-03-16T09:10:06;99133.94;;;5.62;56.47
57847;BME280;43675;50.030;21.952;2023-03-16T09:12:36;99130.16;;;5.80;56.01
57847;BME280;43675;50.030;21.952;2023-03-16T09:15:09;99138.72;;;5.95;55.38
57847;BME280;43675;50.030;21.952;2023-03-16T09:17:38;99141.23;;;6.00;54.88
57847;BME280;43675;50.030;21.952;2023-03-16T09:20:07;99146.45;;;5.98;54.59
57847;BME280;43675;50.030;21.952;2023-03-16T09:22:35;99145.68;;;5.86;54.08
57847;BME280;43675;50.030;21.952;2023-03-16T09:25:05;99144.59;;;5.64;53.49
57847;BME280;43675;50.030;21.952;2023-03-16T09:27:33;99143.18;;;5.56;53.98
57847;BME280;43675;50.030;21.952;2023-03-16T09:30:06;99144.11;;;5.55;53.75
57847;BME280;43675;50.030;21.952;2023-03-16T09:32:33;99141.89;;;5.62;53.57
57847;BME280;43675;50.030;21.952;2023-03-16T09:35:05;99143.80;;;5.66;53.22
57847;BME280;43675;50.030;21.952;2023-03-16T09:37:33;99141.92;;;5.64;52.87
57847;BME280;43675;50.030;21.952;2023-03-16T09:40:03;99145.94;;;5.64;52.86
57847;BME280;43675;50.030;21.952;2023-03-16T09:42:42;99147.17;;;5.52;51.33
57847;BME280;43675;50.030;21.952;2023-03-16T09:45:25;99144.30;;;5.37;50.97
57847;BME280;43675;50.030;21.952;2023-03-16T09:48:02;99144.08;;;5.38;51.04
57847;BME280;43675;50.030;21.952;2023-03-16T09:50:33;99143.30;;;5.47;50.63
57847;BME280;43675;50.030;21.952;2023-03-16T09:53:26;99145.90;;;5.54;50.06
57847;BME280;43675;50.030;21.952;2023-03-16T09:56:01;99146.41;;;5.55;50.09
57847;BME280;43675;50.030;21.952;2023-03-16T09:58:29;99149.19;;;5.60;49.16
57847;BME280;43675;50.030;21.952;2023-03-16T10:04:15;99153.70;;;5.84;48.22
57847;BME280;43675;50.030;21.952;2023-03-16T10:07:03;99146.05;;;6.01;47.39
57847;BME280;43675;50.030;21.952;2023-03-16T10:09:36;99145.86;;;6.26;46.99
57847;BME280;43675;50.030;21.952;2023-03-16T10:12:06;99154.34;;;6.40;46.79
57847;BME280;43675;50.030;21.952;2023-03-16T10:17:21;99161.77;;;6.20;46.12
57847;BME280;43675;50.030;21.952;2023-03-16T10:19:58;99161.70;;;5.95;46.15
57847;BME280;43675;50.030;21.952;2023-03-16T10:22:33;99158.94;;;5.80;46.19
57847;BME280;43675;50.030;21.952;2023-03-16T10:25:15;99160.27;;;5.82;46.33
57847;BME280;43675;50.030;21.952;2023-03-16T10:27:45;99153.80;;;5.99;45.52
57847;BME280;43675;50.030;21.952;2023-03-16T10:30:26;99156.11;;;6.28;45.48
57847;BME280;43675;50.030;21.952;2023-03-16T10:33:00;99153.80;;;6.64;44.91
57847;BME280;43675;50.030;21.952;2023-03-16T10:35:47;99158.30;;;6.91;44.38
57847;BME280;43675;50.030;21.952;2023-03-16T10:38:32;99152.05;;;7.03;44.35
57847;BME280;43675;50.030;21.952;2023-03-16T10:41:00;99166.13;;;7.07;44.42
57847;BME280;43675;50.030;21.952;2023-03-16T10:43:28;99165.64;;;6.94;43.74
57847;BME280;43675;50.030;21.952;2023-03-16T10:45:59;99160.90;;;6.78;43.68
57847;BME280;43675;50.030;21.952;2023-03-16T10:48:31;99161.31;;;6.72;44.07
57847;BME280;43675;50.030;21.952;2023-03-16T10:51:05;99166.60;;;6.69;44.20
57847;BME280;43675;50.030;21.952;2023-03-16T10:53:35;99161.38;;;6.66;43.96
57847;BME280;43675;50.030;21.952;2023-03-16T10:56:11;99158.91;;;6.77;44.07
57847;BME280;43675;50.030;21.952;2023-03-16T10:58:41;99156.80;;;6.95;43.85
57847;BME280;43675;50.030;21.952;2023-03-16T11:01:25;99158.52;;;7.04;43.61
57847;BME280;43675;50.030;21.952;2023-03-16T11:03:57;99162.65;;;7.06;43.89
57847;BME280;43675;50.030;21.952;2023-03-16T11:06:30;99155.17;;;7.08;43.56
57847;BME280;43675;50.030;21.952;2023-03-16T11:09:29;99155.91;;;7.29;43.59
57847;BME280;43675;50.030;21.952;2023-03-16T11:12:00;99157.52;;;7.38;42.99
57847;BME280;43675;50.030;21.952;2023-03-16T11:14:42;99153.80;;;7.30;42.59
57847;BME280;43675;50.030;21.952;2023-03-16T11:17:23;99158.95;;;7.16;42.57
57847;BME280;43675;50.030;21.952;2023-03-16T11:20:04;99161.90;;;6.98;42.88
57847;BME280;43675;50.030;21.952;2023-03-16T11:22:34;99160.65;;;6.81;42.92
57847;BME280;43675;50.030;21.952;2023-03-16T11:32:53;99158.80;;;6.76;43.13
57847;BME280;43675;50.030;21.952;2023-03-16T11:44:43;99155.73;;;6.90;41.28
57847;BME280;43675;50.030;21.952;2023-03-16T11:50:32;99157.59;;;6.29;41.54
57847;BME280;43675;50.030;21.952;2023-03-16T11:55:47;99151.71;;;6.03;41.10
57847;BME280;43675;50.030;21.952;2023-03-16T12:04:33;99152.61;;;6.49;40.26
57847;BME280;43675;50.030;21.952;2023-03-16T12:07:37;99146.67;;;6.69;39.97
57847;BME280;43675;50.030;21.952;2023-03-16T12:10:18;99152.67;;;6.85;39.90
57847;BME280;43675;50.030;21.952;2023-03-16T12:12:58;99158.80;;;6.93;39.73
57847;BME280;43675;50.030;21.952;2023-03-16T12:15:31;99159.69;;;7.03;39.62
57847;BME280;43675;50.030;21.952;2023-03-16T12:18:03;99153.42;;;7.14;39.43
57847;BME280;43675;50.030;21.952;2023-03-16T12:21:19;99152.40;;;7.30;39.30
57847;BME280;43675;50.030;21.952;2023-03-16T12:23:31;99144.05;;;7.37;39.35
57847;BME280;43675;50.030;21.952;2023-03-16T12:26:06;99148.56;;;7.31;39.32
57847;BME280;43675;50.030;21.952;2023-03-16T12:28:35;99147.26;;;7.32;39.55
57847;BME280;43675;50.030;21.952;2023-03-16T12:33:54;99153.49;;;7.11;39.28
57847;BME280;43675;50.030;21.952;2023-03-16T12:45:02;99157.70;;;6.69;40.04
57847;BME280;43675;50.030;21.952;2023-03-16T12:50:06;99150.67;;;7.01;40.04
57847;BME280;43675;50.030;21.952;2023-03-16T12:52:45;99153.63;;;7.17;40.08
57847;BME280;43675;50.030;21.952;2023-03-16T12:55:42;99158.46;;;7.35;39.80
57847;BME280;43675;50.030;21.952;2023-03-16T12:58:08;99158.04;;;7.47;39.16
57847;BME280;43675;50.030;21.952;2023-03-16T13:00:39;99158.94;;;7.47;39.00
57847;BME280;43675;50.030;21.952;2023-03-16T13:03:14;99165.30;;;7.46;39.31
57847;BME280;43675;50.030;21.952;2023-03-16T13:05:45;99166.51;;;7.30;39.39
57847;BME280;43675;50.030;21.952;2023-03-16T13:08:18;99173.97;;;7.08;39.75
57847;BME280;43675;50.030;21.952;2023-03-16T13:11:09;99173.91;;;6.83;39.83
57847;BME280;43675;50.030;21.952;2023-03-16T13:13:49;99172.63;;;6.55;39.98
57847;BME280;43675;50.030;21.952;2023-03-16T13:16:29;99175.44;;;6.41;40.04
57847;BME280;43675;50.030;21.952;2023-03-16T13:18:58;99173.58;;;6.32;40.22
57847;BME280;43675;50.030;21.952;2023-03-16T13:21:33;99174.57;;;6.39;40.34
57847;BME280;43675;50.030;21.952;2023-03-16T13:24:25;99179.04;;;6.49;40.18
57847;BME280;43675;50.030;21.952;2023-03-16T13:27:02;99177.13;;;6.66;39.80
57847;BME280;43675;50.030;21.952;2023-03-16T13:29:32;99181.84;;;6.79;39.09
57847;BME280;43675;50.030;21.952;2023-03-16T13:32:02;99176.99;;;6.83;38.48
57847;BME280;43675;50.030;21.952;2023-03-16T13:34:38;99178.86;;;6.87;38.58
57847;BME280;43675;50.030;21.952;2023-03-16T13:37:16;99176.61;;;6.91;38.55
57847;BME280;43675;50.030;21.952;2023-03-16T13:39:52;99180.99;;;6.84;38.80
57847;BME280;43675;50.030;21.952;2023-03-16T13:42:23;99181.42;;;6.72;38.98
57847;BME280;43675;50.030;21.952;2023-03-16T13:44:56;99181.80;;;6.61;39.29
57847;BME280;43675;50.030;21.952;2023-03-16T13:47:25;99186.45;;;6.48;39.73
57847;BME280;43675;50.030;21.952;2023-03-16T13:50:03;99185.73;;;6.31;39.96
57847;BME280;43675;50.030;21.952;2023-03-16T13:52:33;99185.77;;;6.17;40.20
57847;BME280;43675;50.030;21.952;2023-03-16T13:55:17;99186.61;;;6.02;40.45
57847;BME280;43675;50.030;21.952;2023-03-16T13:57:48;99186.42;;;5.90;40.81
57847;BME280;43675;50.030;21.952;2023-03-16T14:02:43;99178.93;;;5.99;41.02
57847;BME280;43675;50.030;21.952;2023-03-16T14:05:17;99179.90;;;6.20;40.94
57847;BME280;43675;50.030;21.952;2023-03-16T14:07:46;99178.04;;;6.49;40.65
57847;BME280;43675;50.030;21.952;2023-03-16T14:10:14;99173.58;;;6.78;40.13
57847;BME280;43675;50.030;21.952;2023-03-16T14:12:52;99172.42;;;7.09;39.95
57847;BME280;43675;50.030;21.952;2023-03-16T14:15:21;99171.16;;;7.40;39.95
57847;BME280;43675;50.030;21.952;2023-03-16T14:17:50;99174.02;;;7.64;39.65